createdAt,value
2022-11-26T00:04:53.747Z,0.89
2022-11-26T00:09:58.312Z,0.93
2022-11-26T00:15:17.005Z,0.96
2022-11-26T00:20:25.146Z,0.99
2022-11-26T00:26:03.704Z,1.05
2022-11-26T00:31:14.402Z,1.04
2022-11-26T00:36:31.303Z,1.04
2022-11-26T00:41:39.100Z,1.03
2022-11-26T00:46:42.117Z,1.02
2022-11-26T00:51:46.451Z,1.04
2022-11-26T00:56:50.747Z,1.11
2022-11-26T01:01:54.083Z,1.14
2022-11-26T01:06:56.875Z,1.17
2022-11-26T01:11:59.776Z,1.17
2022-11-26T01:17:02.758Z,1.20
2022-11-26T01:22:05.739Z,1.18
2022-11-26T01:27:12.106Z,1.18
2022-11-26T01:32:15.268Z,1.14
2022-11-26T01:37:18.110Z,1.07
2022-11-26T01:42:45.316Z,1.02
2022-11-26T01:47:48.684Z,1.01
2022-11-26T01:52:52.555Z,1.01
2022-11-26T01:57:55.497Z,1.00
2022-11-26T02:02:58.450Z,1.03
2022-11-26T02:08:02.290Z,1.03
2022-11-26T02:13:05.883Z,1.03
2022-11-26T02:18:09.927Z,1.02
2022-11-26T02:24:06.405Z,1.04
2022-11-26T02:29:15.106Z,0.99
2022-11-26T02:34:34.371Z,1.03
2022-11-26T02:39:40.367Z,1.02
2022-11-26T02:44:45.494Z,1.00
2022-11-26T02:49:50.448Z,1.03
2022-11-26T02:54:54.661Z,1.05
2022-11-26T02:59:58.246Z,1.07
2022-11-26T03:05:03.852Z,1.07
2022-11-26T03:10:07.817Z,1.05
2022-11-26T03:15:11.547Z,1.04
2022-11-26T03:20:16.234Z,1.00
2022-11-26T03:25:19.445Z,1.00
2022-11-26T03:30:22.905Z,0.97
2022-11-26T03:35:25.913Z,0.96
2022-11-26T03:40:28.833Z,0.95
2022-11-26T03:45:31.759Z,0.94
2022-11-26T03:50:34.680Z,0.90
2022-11-26T03:55:37.583Z,0.83
2022-11-26T04:00:40.496Z,0.75
2022-11-26T04:05:43.381Z,0.73
2022-11-26T04:10:46.248Z,0.74
2022-11-26T04:15:49.517Z,0.71
2022-11-26T04:20:53.496Z,0.65
2022-11-26T04:25:56.520Z,0.58
2022-11-26T04:30:59.462Z,0.58
2022-11-26T04:36:02.404Z,0.56
2022-11-26T04:41:05.731Z,0.58
2022-11-26T04:46:08.710Z,0.62
2022-11-26T04:51:11.610Z,0.64
2022-11-26T04:56:14.712Z,0.65
2022-11-26T05:01:17.687Z,0.67
2022-11-26T05:06:21.109Z,0.71
2022-11-26T05:11:24.151Z,0.71
2022-11-26T05:16:27.166Z,0.66
2022-11-26T05:21:30.192Z,0.52
2022-11-26T05:26:33.060Z,0.34
2022-11-26T05:31:36.108Z,0.22
2022-11-26T05:36:38.945Z,0.15
2022-11-26T05:41:41.946Z,0.13
2022-11-26T05:46:44.858Z,0.14
2022-11-26T05:51:47.791Z,0.13
2022-11-26T05:56:53.125Z,0.15
2022-11-26T06:01:59.977Z,0.16
2022-11-26T06:07:02.850Z,0.17
2022-11-26T06:12:07.242Z,0.19
2022-11-26T06:17:10.652Z,0.17
2022-11-26T06:22:13.701Z,0.16
2022-11-26T06:27:16.568Z,0.16
2022-11-26T06:32:20.109Z,0.16
2022-11-26T06:37:23.023Z,0.19
2022-11-26T06:42:26.129Z,0.17
2022-11-26T06:47:28.926Z,0.22
2022-11-26T06:52:31.619Z,0.26
2022-11-26T06:57:34.597Z,0.33
2022-11-26T07:02:38.510Z,0.36
2022-11-26T07:07:42.083Z,0.32
2022-11-26T07:12:45.080Z,0.20
2022-11-26T07:17:47.763Z,0.11
2022-11-26T07:22:50.779Z,0.07
2022-11-26T07:27:53.658Z,0.10
2022-11-26T07:32:56.629Z,0.18
2022-11-26T07:37:59.870Z,0.26
2022-11-26T07:43:02.916Z,0.34
2022-11-26T07:48:06.083Z,0.44
2022-11-26T07:53:08.779Z,0.64
2022-11-26T07:58:11.788Z,0.83
2022-11-26T08:03:14.801Z,1.12
2022-11-26T08:08:17.817Z,1.39
2022-11-26T08:13:20.784Z,1.63
2022-11-26T08:18:23.850Z,1.73
2022-11-26T08:23:28.450Z,1.83
2022-11-26T08:28:31.322Z,1.96
2022-11-26T08:33:35.350Z,2.14
2022-11-26T08:38:38.987Z,2.29
2022-11-26T08:44:05.545Z,2.38
2022-11-26T08:49:06.287Z,2.45
2022-11-26T08:54:10.147Z,2.56
2022-11-26T08:59:13.064Z,2.69
2022-11-26T09:04:16.387Z,2.82
2022-11-26T09:09:19.750Z,2.97
2022-11-26T09:14:26.316Z,3.08
2022-11-26T09:19:29.371Z,3.11
2022-11-26T09:24:32.313Z,3.18
2022-11-26T09:29:35.134Z,3.18
2022-11-26T09:34:38.532Z,3.25
2022-11-26T09:39:42.938Z,3.31
2022-11-26T09:45:01.753Z,3.33
2022-11-26T09:50:13.896Z,3.45
2022-11-26T09:55:26.210Z,3.62
2022-11-26T10:00:37.507Z,3.70
2022-11-26T10:05:52.455Z,3.76
2022-11-26T10:11:38.806Z,3.94
2022-11-26T10:16:50.734Z,4.05
2022-11-26T10:22:00.636Z,4.22
2022-11-26T10:27:26.835Z,4.36
2022-11-26T10:32:42.525Z,4.53
2022-11-26T10:37:46.026Z,4.66
2022-11-26T10:43:21.593Z,4.77
2022-11-26T10:48:29.284Z,4.95
2022-11-26T10:53:49.428Z,5.10
2022-11-26T10:58:54.270Z,5.23
2022-11-26T11:04:13.881Z,5.30
2022-11-26T11:09:31.857Z,5.38
2022-11-26T11:14:41.111Z,5.42
2022-11-26T11:19:45.500Z,5.51
2022-11-26T11:24:49.192Z,5.64
2022-11-26T11:29:52.523Z,5.77
2022-11-26T11:34:55.438Z,5.87
2022-11-26T11:40:17.026Z,5.92
2022-11-26T11:45:42.823Z,5.91
2022-11-26T11:51:15.125Z,6.01
2022-11-26T11:56:26.816Z,6.10
2022-11-26T12:02:17.987Z,6.29
2022-11-26T12:07:37.596Z,6.52
2022-11-26T12:12:52.515Z,6.71
2022-11-26T12:18:31.588Z,6.81
2022-11-26T12:23:48.969Z,6.83
2022-11-26T12:29:13.206Z,6.85
2022-11-26T12:34:39.286Z,6.84
2022-11-26T12:40:06.406Z,6.91
2022-11-26T12:45:19.936Z,6.93
2022-11-26T12:51:03.116Z,6.92
2022-11-26T12:56:41.864Z,6.95
2022-11-26T13:01:44.757Z,6.91
2022-11-26T13:06:53.913Z,6.90
2022-11-26T13:12:18.334Z,6.81
2022-11-26T13:17:38.002Z,6.68
2022-11-26T13:23:24.185Z,6.58
2022-11-26T13:28:54.491Z,6.42
2022-11-26T13:34:03.079Z,6.30
2022-11-26T13:39:49.102Z,6.25
2022-11-26T13:45:14.412Z,6.20
2022-11-26T13:50:43.431Z,6.16
2022-11-26T13:55:52.548Z,6.11
2022-11-26T14:00:56.600Z,6.07
2022-11-26T14:06:03.632Z,6.07
2022-11-26T14:11:11.037Z,6.02
2022-11-26T14:16:13.978Z,5.94
2022-11-26T14:21:19.363Z,5.85
2022-11-26T14:26:40.076Z,5.69
2022-11-26T14:31:54.644Z,5.56
2022-11-26T14:37:00.795Z,5.48
2022-11-26T14:42:06.341Z,5.40
2022-11-26T14:47:20.832Z,5.31
2022-11-26T14:52:34.562Z,5.22
2022-11-26T14:58:13.483Z,5.12
2022-11-26T15:03:24.608Z,5.01
2022-11-26T15:08:27.766Z,4.87
2022-11-26T15:13:43.034Z,4.70
2022-11-26T15:18:46.508Z,4.51
2022-11-26T15:23:52.258Z,4.29
2022-11-26T15:28:55.238Z,4.21
2022-11-26T15:33:58.704Z,4.10
2022-11-26T15:39:08.012Z,4.00
2022-11-26T15:44:26.720Z,3.91
2022-11-26T15:49:40.261Z,3.82
2022-11-26T15:55:11.928Z,3.69
2022-11-26T16:00:22.527Z,3.57
2022-11-26T16:05:38.785Z,3.52
2022-11-26T16:10:41.963Z,3.49
2022-11-26T16:16:16.950Z,3.45
2022-11-26T16:21:32.989Z,3.43
2022-11-26T16:27:00.992Z,3.46
2022-11-26T16:32:04.133Z,3.45
2022-11-26T16:37:30.039Z,3.43
2022-11-26T16:42:33.352Z,3.40
2022-11-26T16:47:49.923Z,3.36
2022-11-26T16:52:54.317Z,3.34
2022-11-26T16:58:01.327Z,3.30
2022-11-26T17:03:04.449Z,3.25
2022-11-26T17:08:12.029Z,3.20
2022-11-26T17:13:15.700Z,3.15
2022-11-26T17:18:25.260Z,3.10
2022-11-26T17:23:28.942Z,3.08
2022-11-26T17:28:31.889Z,3.12
2022-11-26T17:33:34.791Z,3.30
2022-11-26T17:38:37.851Z,3.48
2022-11-26T17:43:41.159Z,3.75
2022-11-26T17:48:44.687Z,3.95
2022-11-26T17:53:47.978Z,4.02
2022-11-26T17:58:51.344Z,4.08
2022-11-26T18:03:54.244Z,4.11
2022-11-26T18:08:57.156Z,4.14
2022-11-26T18:13:59.960Z,4.19
2022-11-26T18:19:02.803Z,4.25
2022-11-26T18:24:07.844Z,4.34
2022-11-26T18:29:11.890Z,4.39
2022-11-26T18:34:14.902Z,4.37
2022-11-26T18:39:17.938Z,4.37
2022-11-26T18:44:20.864Z,4.34
2022-11-26T18:49:24.380Z,4.35
2022-11-26T18:54:27.277Z,4.33
2022-11-26T18:59:30.318Z,4.30
2022-11-26T19:04:33.318Z,4.21
2022-11-26T19:09:37.990Z,4.13
2022-11-26T19:14:41.113Z,4.06
2022-11-26T19:19:44.063Z,4.01
2022-11-26T19:24:48.558Z,4.00
2022-11-26T19:29:51.576Z,3.97
2022-11-26T19:34:54.716Z,3.98
2022-11-26T19:39:57.627Z,3.98
2022-11-26T19:45:00.525Z,3.95
2022-11-26T19:50:03.680Z,3.92
2022-11-26T19:55:07.006Z,3.87
2022-11-26T20:00:10.867Z,3.87
2022-11-26T20:05:13.920Z,3.87
2022-11-26T20:10:16.864Z,3.87
2022-11-26T20:15:19.679Z,3.85
2022-11-26T20:20:22.717Z,3.82
2022-11-26T20:25:25.599Z,3.83
2022-11-26T20:30:29.259Z,3.82
2022-11-26T20:35:32.212Z,3.79
2022-11-26T20:40:35.351Z,3.79
2022-11-26T20:45:38.787Z,3.77
2022-11-26T20:50:41.777Z,3.76
2022-11-26T20:55:54.149Z,3.76
2022-11-26T21:00:57.904Z,3.75
2022-11-26T21:06:04.139Z,3.72
2022-11-26T21:11:08.214Z,3.70
2022-11-26T21:16:16.570Z,3.66
2022-11-26T21:21:21.249Z,3.62
2022-11-26T21:26:26.019Z,3.61
2022-11-26T21:31:31.206Z,3.59
2022-11-26T21:36:36.167Z,3.59
2022-11-26T21:41:39.036Z,3.57
2022-11-26T21:46:42.052Z,3.56
2022-11-26T21:51:45.029Z,3.56
2022-11-26T21:56:48.068Z,3.56
2022-11-26T22:01:51.270Z,3.55
2022-11-26T22:06:54.235Z,3.53
2022-11-26T22:11:57.225Z,3.53
2022-11-26T22:16:59.953Z,3.53
2022-11-26T22:22:02.804Z,3.49
2022-11-26T22:27:05.689Z,3.49
2022-11-26T22:32:08.591Z,3.48
2022-11-26T22:37:11.497Z,3.45
2022-11-26T22:42:14.497Z,3.43
2022-11-26T22:47:17.352Z,3.43
2022-11-26T22:52:20.789Z,3.43
2022-11-26T22:57:25.548Z,3.42
2022-11-26T23:02:29.418Z,3.42
2022-11-26T23:07:32.807Z,3.41
2022-11-26T23:12:35.700Z,3.40
2022-11-26T23:17:38.534Z,3.35
2022-11-26T23:22:41.433Z,3.33
2022-11-26T23:27:44.910Z,3.32
2022-11-26T23:32:48.131Z,3.29
2022-11-26T23:37:51.084Z,3.28
2022-11-26T23:42:54.027Z,3.25
2022-11-26T23:47:56.934Z,3.24
2022-11-26T23:52:59.798Z,3.23
2022-11-26T23:58:02.728Z,3.23
